createdAt,value
2023-05-19T00:01:45.121Z,101724.60
2023-05-19T00:06:51.569Z,101728.00
2023-05-19T00:11:53.896Z,101731.60
2023-05-19T00:16:57.647Z,101727.40
2023-05-19T00:21:59.590Z,101729.60
2023-05-19T00:27:01.425Z,101726.80
2023-05-19T00:32:03.572Z,101721.40
2023-05-19T00:37:05.637Z,101718.00
2023-05-19T00:42:07.619Z,101716.00
2023-05-19T00:47:09.457Z,101712.60
2023-05-19T00:52:11.400Z,101707.20
2023-05-19T00:57:14.984Z,101707.20
2023-05-19T01:02:17.589Z,101700.40
2023-05-19T01:07:20.893Z,101696.00
2023-05-19T01:12:23.089Z,101696.20
2023-05-19T01:17:49.138Z,101700.80
2023-05-19T01:23:17.546Z,101700.20
2023-05-19T01:28:44.326Z,101697.00
2023-05-19T01:33:47.710Z,101702.60
2023-05-19T01:38:57.770Z,101702.80
2023-05-19T01:44:00.057Z,101700.80
2023-05-19T01:49:02.567Z,101690.60
2023-05-19T01:54:04.431Z,101690.00
2023-05-19T01:59:28.115Z,101690.00
2023-05-19T02:04:55.722Z,101698.60
2023-05-19T02:10:23.940Z,101703.00
2023-05-19T02:15:33.574Z,101706.40
2023-05-19T02:20:35.479Z,101702.20
2023-05-19T02:25:37.828Z,101702.00
2023-05-19T02:30:39.603Z,101708.00
2023-05-19T02:35:41.362Z,101712.20
2023-05-19T02:40:43.278Z,101714.40
2023-05-19T02:45:45.218Z,101711.80
2023-05-19T02:50:47.004Z,101708.40
2023-05-19T02:55:48.872Z,101707.80
2023-05-19T03:00:51.161Z,101707.20
2023-05-19T03:05:53.493Z,101704.80
2023-05-19T03:10:55.224Z,101702.80
2023-05-19T03:15:58.756Z,101704.00
2023-05-19T03:21:00.858Z,101704.40
2023-05-19T03:26:02.801Z,101710.40
2023-05-19T03:31:04.692Z,101708.40
2023-05-19T03:36:07.500Z,101701.20
2023-05-19T03:41:09.264Z,101707.80
2023-05-19T03:46:13.974Z,101707.60
2023-05-19T03:51:16.085Z,101708.60
2023-05-19T03:56:17.867Z,101701.40
2023-05-19T04:01:19.846Z,101703.80
2023-05-19T04:06:21.722Z,101701.60
2023-05-19T04:11:23.623Z,101702.40
2023-05-19T04:16:25.712Z,101701.00
2023-05-19T04:21:27.776Z,101701.00
2023-05-19T04:26:30.670Z,101703.40
2023-05-19T04:31:33.896Z,101704.00
2023-05-19T04:36:37.315Z,101706.20
2023-05-19T04:41:40.080Z,101716.40
2023-05-19T04:46:42.313Z,101713.40
2023-05-19T04:51:45.678Z,101716.80
2023-05-19T04:56:47.450Z,101716.60
2023-05-19T05:01:49.410Z,101721.60
2023-05-19T05:06:51.524Z,101726.00
2023-05-19T05:11:54.018Z,101722.20
2023-05-19T05:16:56.492Z,101730.00
2023-05-19T05:22:00.000Z,101723.80
2023-05-19T05:27:01.833Z,101725.20
2023-05-19T05:32:04.014Z,101721.20
2023-05-19T05:37:06.386Z,101719.40
2023-05-19T05:42:12.048Z,101722.20
2023-05-19T05:47:15.251Z,101729.20
2023-05-19T05:52:20.750Z,101722.60
2023-05-19T05:57:23.211Z,101722.40
2023-05-19T06:02:25.321Z,101729.60
2023-05-19T06:07:27.366Z,101727.60
2023-05-19T06:12:29.158Z,101729.60
2023-05-19T06:17:31.304Z,101733.40
2023-05-19T06:22:33.410Z,101740.00
2023-05-19T06:27:35.692Z,101733.60
2023-05-19T06:32:37.727Z,101734.60
2023-05-19T06:37:39.756Z,101736.00
2023-05-19T06:42:41.643Z,101731.00
2023-05-19T06:47:44.810Z,101735.00
2023-05-19T06:52:46.719Z,101734.40
2023-05-19T06:57:48.618Z,101735.80
2023-05-19T07:02:50.599Z,101740.40
2023-05-19T07:07:52.667Z,101741.20
2023-05-19T07:12:54.630Z,101745.60
2023-05-19T07:17:58.292Z,101741.60
2023-05-19T07:23:02.279Z,101747.80
2023-05-19T07:28:04.470Z,101756.20
2023-05-19T07:33:06.563Z,101756.60
2023-05-19T07:38:08.326Z,101760.80
2023-05-19T07:43:11.142Z,101759.00
2023-05-19T07:48:13.434Z,101768.00
2023-05-19T07:53:15.590Z,101771.60
2023-05-19T07:58:17.484Z,101767.60
2023-05-19T08:03:20.294Z,101769.40
2023-05-19T08:08:22.760Z,101768.80
2023-05-19T08:13:24.833Z,101767.20
2023-05-19T08:18:26.722Z,101768.60
2023-05-19T08:23:28.922Z,101760.40
2023-05-19T08:28:31.000Z,101763.40
2023-05-19T08:33:32.869Z,101754.20
2023-05-19T08:38:34.752Z,101759.60
2023-05-19T08:43:37.140Z,101763.20
2023-05-19T08:48:43.645Z,101755.80
2023-05-19T08:53:53.130Z,101758.40
2023-05-19T08:58:59.751Z,101758.80
2023-05-19T09:04:03.398Z,101757.60
2023-05-19T09:09:05.872Z,101761.80
2023-05-19T09:14:07.655Z,101760.80
2023-05-19T09:19:16.739Z,101760.60
2023-05-19T09:24:18.775Z,101767.80
2023-05-19T09:29:20.666Z,101756.40
2023-05-19T09:34:24.405Z,101762.20
2023-05-19T09:39:28.312Z,101758.20
2023-05-19T09:44:30.995Z,101759.20
2023-05-19T09:49:32.981Z,101757.60
2023-05-19T09:54:35.180Z,101755.80
2023-05-19T09:59:38.775Z,101753.40
2023-05-19T10:04:42.363Z,101752.20
2023-05-19T10:09:45.702Z,101752.80
2023-05-19T10:14:49.426Z,101754.80
2023-05-19T10:19:54.211Z,101756.00
2023-05-19T10:24:56.248Z,101751.20
2023-05-19T10:30:05.583Z,101756.40
2023-05-19T10:35:25.852Z,101755.20
2023-05-19T10:40:34.036Z,101757.60
2023-05-19T10:45:48.754Z,101753.40
2023-05-19T10:50:56.337Z,101759.20
2023-05-19T10:56:04.555Z,101760.00
2023-05-19T11:01:09.565Z,101762.00
2023-05-19T11:06:30.647Z,101758.40
2023-05-19T11:11:48.056Z,101762.60
2023-05-19T11:16:53.168Z,101765.40
2023-05-19T11:21:57.093Z,101761.40
2023-05-19T11:26:58.930Z,101757.20
2023-05-19T11:32:01.239Z,101755.00
2023-05-19T11:37:04.732Z,101746.60
2023-05-19T11:42:15.439Z,101740.80
2023-05-19T11:47:17.395Z,101743.40
2023-05-19T11:52:22.614Z,101748.20
2023-05-19T11:57:24.487Z,101753.40
2023-05-19T12:02:27.560Z,101756.60
2023-05-19T12:07:29.860Z,101762.60
2023-05-19T12:12:31.714Z,101762.20
2023-05-19T12:17:34.414Z,101757.00
2023-05-19T12:22:37.500Z,101755.40
2023-05-19T12:27:42.246Z,101752.60
2023-05-19T12:32:46.484Z,101751.00
2023-05-19T12:37:48.877Z,101757.80
2023-05-19T12:42:52.918Z,101756.20
2023-05-19T12:47:55.616Z,101761.60
2023-05-19T12:52:59.319Z,101757.20
2023-05-19T12:58:06.694Z,101764.80
2023-05-19T13:03:16.500Z,101766.00
2023-05-19T13:08:21.294Z,101769.60
2023-05-19T13:13:23.224Z,101767.60
2023-05-19T13:18:27.060Z,101764.00
2023-05-19T13:23:28.912Z,101742.20
2023-05-19T13:28:31.102Z,101730.20
2023-05-19T13:33:33.383Z,101727.40
2023-05-19T13:38:35.369Z,101727.20
2023-05-19T13:43:37.599Z,101716.00
2023-05-19T13:48:39.669Z,101709.40
2023-05-19T13:53:42.232Z,101731.00
2023-05-19T13:58:44.304Z,101733.20
2023-05-19T14:03:46.162Z,101727.20
2023-05-19T14:08:48.064Z,101732.80
2023-05-19T14:13:52.520Z,101738.20
2023-05-19T14:18:54.811Z,101737.00
2023-05-19T14:23:57.635Z,101723.40
2023-05-19T14:29:00.139Z,101717.80
2023-05-19T14:34:02.286Z,101705.60
2023-05-19T14:39:04.180Z,101694.60
2023-05-19T14:44:06.344Z,101693.60
2023-05-19T14:49:08.524Z,101702.60
2023-05-19T14:54:10.589Z,101705.20
2023-05-19T14:59:12.468Z,101712.80
2023-05-19T15:04:14.341Z,101707.20
2023-05-19T15:09:16.689Z,101706.20
2023-05-19T15:14:18.617Z,101709.00
2023-05-19T15:19:21.099Z,101702.00
2023-05-19T15:24:23.971Z,101699.00
2023-05-19T15:29:26.088Z,101692.40
2023-05-19T15:34:28.211Z,101685.20
2023-05-19T15:39:31.095Z,101690.00
2023-05-19T15:44:33.060Z,101688.20
2023-05-19T15:49:35.241Z,101685.00
2023-05-19T15:54:37.152Z,101681.20
2023-05-19T15:59:39.209Z,101674.60
2023-05-19T16:04:41.181Z,101674.00
2023-05-19T16:09:43.168Z,101672.20
2023-05-19T16:14:45.034Z,101681.80
2023-05-19T16:19:46.855Z,101673.80
2023-05-19T16:24:48.996Z,101678.20
2023-05-19T16:29:50.887Z,101680.20
2023-05-19T16:34:52.952Z,101686.20
2023-05-19T16:39:54.949Z,101684.80
2023-05-19T16:44:57.118Z,101685.20
2023-05-19T16:49:59.013Z,101684.80
2023-05-19T16:55:00.979Z,101690.40
2023-05-19T17:00:03.775Z,101687.20
2023-05-19T17:05:06.294Z,101682.20
2023-05-19T17:10:09.383Z,101683.20
2023-05-19T17:15:11.586Z,101681.60
2023-05-19T17:20:13.540Z,101682.80
2023-05-19T17:25:16.060Z,101680.40
2023-05-19T17:30:18.003Z,101684.00
2023-05-19T17:35:20.190Z,101683.00
2023-05-19T17:40:22.083Z,101685.40
2023-05-19T17:45:24.359Z,101684.80
2023-05-19T17:50:26.240Z,101680.80
2023-05-19T17:55:30.529Z,101686.20
2023-05-19T18:00:33.013Z,101685.00
2023-05-19T18:05:36.927Z,101685.00
2023-05-19T18:10:42.265Z,101690.60
2023-05-19T18:15:44.239Z,101689.80
2023-05-19T18:20:46.209Z,101686.40
2023-05-19T18:25:51.175Z,101679.20
2023-05-19T18:31:05.370Z,101685.40
2023-05-19T18:36:08.110Z,101688.00
2023-05-19T18:41:10.104Z,101688.00
2023-05-19T18:46:12.977Z,101692.20
2023-05-19T18:51:15.485Z,101688.60
2023-05-19T18:56:30.608Z,101692.40
2023-05-19T19:01:32.487Z,101697.80
2023-05-19T19:06:34.482Z,101694.80
2023-05-19T19:11:36.621Z,101697.20
2023-05-19T19:16:38.741Z,101698.20
2023-05-19T19:21:41.506Z,101707.40
2023-05-19T19:26:43.494Z,101708.60
2023-05-19T19:31:45.742Z,101713.00
2023-05-19T19:36:47.987Z,101708.80
2023-05-19T19:41:50.137Z,101707.20
2023-05-19T19:46:52.272Z,101712.80
2023-05-19T19:51:54.349Z,101716.80
2023-05-19T19:56:56.286Z,101714.20
2023-05-19T20:01:58.277Z,101709.20
2023-05-19T20:07:00.452Z,101717.80
2023-05-19T20:12:02.429Z,101725.40
2023-05-19T20:17:05.020Z,101722.20
2023-05-19T20:22:06.909Z,101713.40
2023-05-19T20:27:09.205Z,101716.40
2023-05-19T20:32:11.268Z,101716.40
2023-05-19T20:37:13.457Z,101721.20
2023-05-19T20:42:15.464Z,101718.00
2023-05-19T20:47:18.958Z,101721.80
2023-05-19T20:52:21.136Z,101717.60
2023-05-19T20:57:23.151Z,101710.80
2023-05-19T21:02:25.000Z,101711.40
2023-05-19T21:07:27.089Z,101705.40
2023-05-19T21:12:33.456Z,101703.40
2023-05-19T21:17:35.660Z,101706.20
2023-05-19T21:22:37.893Z,101706.40
2023-05-19T21:27:40.123Z,101704.20
2023-05-19T21:32:42.364Z,101708.60
2023-05-19T21:37:44.286Z,101703.20
2023-05-19T21:42:46.262Z,101706.60
2023-05-19T21:47:48.053Z,101709.80
2023-05-19T21:52:50.010Z,101713.20
2023-05-19T21:57:51.819Z,101709.60
2023-05-19T22:02:53.804Z,101709.20
2023-05-19T22:07:55.661Z,101719.20
2023-05-19T22:12:58.352Z,101717.40
2023-05-19T22:18:00.229Z,101710.40
2023-05-19T22:23:03.229Z,101701.80
2023-05-19T22:28:07.460Z,101704.80
2023-05-19T22:33:11.010Z,101704.40
2023-05-19T22:38:12.952Z,101710.00
2023-05-19T22:43:14.759Z,101714.60
2023-05-19T22:48:16.804Z,101708.60
2023-05-19T22:53:18.686Z,101711.20
2023-05-19T22:58:20.618Z,101714.20
2023-05-19T23:03:22.537Z,101712.80
2023-05-19T23:08:24.314Z,101708.60
2023-05-19T23:13:26.236Z,101709.40
2023-05-19T23:18:28.172Z,101705.20
2023-05-19T23:23:29.871Z,101707.80
2023-05-19T23:28:31.824Z,101699.40
2023-05-19T23:33:33.596Z,101704.00
2023-05-19T23:38:37.228Z,101708.00
2023-05-19T23:43:39.109Z,101701.40
2023-05-19T23:48:41.088Z,101706.60
2023-05-19T23:53:42.854Z,101702.40
2023-05-19T23:58:44.648Z,101704.40
